Time;durP1;ratioP1;P1;durP2;ratioP2;P2;SDS_P1;SDS_P2;PMS_P1;PMS_P2;Temp;Humidity;BMP_temperature;BMP_pressure;BME280_temperature;BME280_humidity;BME280_pressure;Samples;Min_cycle;Max_cycle;Signal;HPM_P1;HPM_P2
2022/05/26 00:02:07;;;;;;;4.50;0.97;;;;;;;-145.69;100.00;72321.81;5073694;28;20612;-77
2022/05/26 00:04:34;;;;;;;2.17;1.10;;;;;;;-145.69;100.00;72327.78;5073872;28;20198;-76
2022/05/26 00:07:01;;;;;;;2.60;1.20;;;;;;;-145.69;100.00;72341.72;5073583;28;20558;-77
2022/05/26 00:09:28;;;;;;;3.67;1.17;;;;;;;-145.69;100.00;72339.72;5073651;28;20714;-77
2022/05/26 00:11:54;;;;;;;1.93;1.07;;;;;;;-145.69;100.00;72345.69;5073417;28;20202;-76
2022/05/26 00:14:21;;;;;;;4.93;1.13;;;;;;;-145.69;100.00;72345.69;5073649;28;20202;-77
2022/05/26 00:16:48;;;;;;;1.70;1.10;;;;;;;-145.69;100.00;72353.66;5073586;28;20616;-76
2022/05/26 00:19:17;;;;;;;2.33;1.30;;;;;;;-145.69;100.00;72353.66;5058006;28;20253;-77
2022/05/26 00:21:44;;;;;;;1.47;1.10;;;;;;;-145.69;100.00;72363.63;5053511;28;20685;-77
2022/05/26 00:24:12;;;;;;;4.23;1.20;;;;;;;-145.69;100.00;72345.69;5053303;28;20331;-77
2022/05/26 00:26:38;;;;;;;2.90;1.20;;;;;;;-145.69;100.00;72337.75;5053624;28;20214;-77
2022/05/26 00:29:05;;;;;;;3.53;1.10;;;;;;;-145.69;100.00;72359.63;5053894;28;20609;-77
2022/05/26 00:31:31;;;;;;;5.83;1.10;;;;;;;-145.69;100.00;72379.53;5073568;28;20203;-77
2022/05/26 00:33:58;;;;;;;2.70;1.10;;;;;;;-145.69;100.00;72367.59;5073548;28;20202;-77
2022/05/26 00:36:38;;;;;;;1.40;1.30;;;;;;;-145.69;100.00;72347.69;5073414;28;20229;-77
2022/05/26 00:39:06;;;;;;;2.20;1.17;;;;;;;-145.69;100.00;72339.72;5073617;28;20293;-77
2022/05/26 00:41:34;;;;;;;4.40;1.20;;;;;;;-145.69;100.00;72323.81;5073123;28;20203;-77
2022/05/26 00:44:00;;;;;;;4.53;1.30;;;;;;;-145.69;100.00;72337.75;5073323;28;20199;-77
2022/05/26 00:46:36;;;;;;;6.03;1.37;;;;;;;-145.69;100.00;72343.72;5073082;28;20252;-76
2022/05/26 00:49:03;;;;;;;5.13;1.27;;;;;;;-145.69;100.00;72365.59;5073330;28;20259;-76
2022/05/26 00:51:34;;;;;;;3.40;1.20;;;;;;;-145.69;100.00;72371.56;5073271;28;20202;-76
2022/05/26 00:54:04;;;;;;;7.13;1.30;;;;;;;-145.69;100.00;72373.56;5072783;28;20203;-77
2022/05/26 00:56:39;;;;;;;2.87;1.13;;;;;;;-145.69;100.00;72363.63;5073044;28;20743;-76
2022/05/26 00:59:11;;;;;;;4.93;1.10;;;;;;;-145.69;100.00;72351.66;5072423;28;20217;-76
2022/05/26 01:01:39;;;;;;;3.90;1.07;;;;;;;-145.69;100.00;72311.88;5073216;28;20199;-77
2022/05/26 01:04:10;;;;;;;3.10;1.17;;;;;;;-145.69;100.00;72305.91;5073150;28;20206;-77
2022/05/26 01:06:42;;;;;;;2.50;0.90;;;;;;;-145.69;100.00;72286.00;5072613;28;20230;-76
2022/05/26 01:09:09;;;;;;;1.20;1.10;;;;;;;-145.69;100.00;72282.00;5072907;28;20206;-77
2022/05/26 01:11:39;;;;;;;6.83;1.63;;;;;;;-145.69;100.00;72254.16;5073195;28;20255;-77
2022/05/26 01:14:12;;;;;;;0.93;0.87;;;;;;;-145.69;100.00;72244.19;5073004;28;20661;-77
2022/05/26 01:16:45;;;;;;;2.23;1.10;;;;;;;-145.69;100.00;72258.13;5072620;28;20281;-77
2022/05/26 01:19:36;;;;;;;1.43;1.00;;;;;;;-145.69;100.00;72262.09;5073201;28;20203;-77
2022/05/26 01:22:14;;;;;;;2.97;0.90;;;;;;;-145.69;100.00;72266.09;5072895;28;20199;-77
2022/05/26 01:25:09;;;;;;;1.37;0.90;;;;;;;-145.69;100.00;72266.09;5072789;28;20230;-77
2022/05/26 01:27:38;;;;;;;2.30;0.90;;;;;;;-145.69;100.00;72254.16;5072354;28;20195;-77
2022/05/26 01:30:23;;;;;;;2.07;1.10;;;;;;;-145.69;100.00;72234.25;5072971;28;20225;-77
2022/05/26 01:33:14;;;;;;;4.97;1.00;;;;;;;-145.69;100.00;72248.19;5072836;28;20843;-76
2022/05/26 01:35:52;;;;;;;1.17;1.03;;;;;;;-145.69;100.00;72250.16;5072605;28;20653;-77
2022/05/26 01:38:30;;;;;;;2.17;0.80;;;;;;;-145.69;100.00;72262.09;5072801;28;20226;-77
2022/05/26 01:41:05;;;;;;;2.23;0.90;;;;;;;-145.69;100.00;72252.16;5052746;28;20249;-77
2022/05/26 01:43:41;;;;;;;1.87;0.90;;;;;;;-145.69;100.00;72246.19;5052550;28;20229;-77
2022/05/26 01:46:15;;;;;;;3.07;1.00;;;;;;;-145.69;100.00;72246.19;5052361;28;20597;-77
2022/05/26 01:48:47;;;;;;;1.20;1.10;;;;;;;-145.69;100.00;72244.19;5052987;28;20269;-77
2022/05/26 01:51:18;;;;;;;2.80;1.30;;;;;;;-145.69;100.00;72234.25;5057704;28;20380;-77
2022/05/26 01:53:55;;;;;;;1.93;1.20;;;;;;;-145.69;100.00;72224.28;5072600;28;20252;-78
2022/05/26 01:56:27;;;;;;;1.90;1.00;;;;;;;-145.69;100.00;72214.34;5072440;28;20252;-78
2022/05/26 01:59:00;;;;;;;2.43;1.20;;;;;;;-145.69;100.00;72210.38;5072576;28;20203;-78
2022/05/26 02:01:35;;;;;;;8.10;1.17;;;;;;;-145.69;100.00;72200.41;5072580;28;20199;-78
2022/05/26 02:04:09;;;;;;;1.97;0.90;;;;;;;-145.69;100.00;72198.41;5072176;28;20202;-77
2022/05/26 02:06:41;;;;;;;3.57;1.10;;;;;;;-145.69;100.00;72202.41;5072211;28;20209;-78
2022/05/26 02:09:10;;;;;;;1.80;0.93;;;;;;;-145.69;100.00;72194.44;5072691;28;20214;-77
2022/05/26 02:11:47;;;;;;;1.27;1.00;;;;;;;-145.69;100.00;72186.47;5071117;28;20195;-77
2022/05/26 02:14:18;;;;;;;4.23;1.27;;;;;;;-145.69;100.00;72178.53;5056074;28;20573;-77
2022/05/26 02:16:48;;;;;;;1.20;0.90;;;;;;;-145.69;100.00;72190.47;5072101;28;20230;-78
2022/05/26 02:19:20;;;;;;;2.60;0.80;;;;;;;-145.69;100.00;72190.47;5075897;28;20199;-77
2022/05/26 02:21:53;;;;;;;2.90;1.20;;;;;;;-145.69;100.00;72202.41;5075796;28;20595;-77
2022/05/26 02:24:24;;;;;;;2.17;1.13;;;;;;;-145.69;100.00;72202.41;5075773;28;20230;-77
2022/05/26 02:26:51;;;;;;;2.33;1.23;;;;;;;-145.69;100.00;72216.34;5075478;28;20260;-77
2022/05/26 02:32:05;;;;;;;1.87;1.10;;;;;;;-145.69;100.00;72234.25;5075649;28;20672;-77
2022/05/26 02:34:34;;;;;;;2.00;1.10;;;;;;;-145.69;100.00;72230.25;5075854;28;20252;-77
2022/05/26 02:37:02;;;;;;;5.73;1.13;;;;;;;-145.69;100.00;72234.25;5075668;28;20707;-77
2022/05/26 02:39:29;;;;;;;3.13;1.10;;;;;;;-145.69;100.00;72246.19;5075277;28;20557;-77
2022/05/26 02:41:58;;;;;;;2.73;1.17;;;;;;;-145.69;100.00;72244.19;5075516;28;20203;-77
2022/05/26 02:44:27;;;;;;;1.47;0.90;;;;;;;-145.69;100.00;72246.19;5075247;28;20658;-76
2022/05/26 02:47:05;;;;;;;1.67;0.90;;;;;;;-145.69;100.00;72246.19;5075440;28;20199;-77
2022/05/26 02:49:55;;;;;;;2.63;1.23;;;;;;;-145.69;100.00;72230.25;5075141;28;20195;-77
2022/05/26 02:52:30;;;;;;;0.90;0.90;;;;;;;-145.69;100.00;72224.28;5074845;28;20194;-77
2022/05/26 02:55:08;;;;;;;1.63;1.00;;;;;;;-145.69;100.00;72222.31;5075285;28;20199;-77
2022/05/26 02:57:40;;;;;;;2.53;0.87;;;;;;;-145.69;100.00;72202.41;5074917;28;20230;-77
2022/05/26 03:00:10;;;;;;;5.00;1.10;;;;;;;-145.69;100.00;72206.38;5074996;28;20194;-77
2022/05/26 03:02:43;;;;;;;7.43;1.13;;;;;;;-145.69;100.00;72194.44;5074924;28;20230;-77
2022/05/26 03:05:16;;;;;;;2.40;1.00;;;;;;;-145.69;100.00;72192.44;5074992;28;20213;-76
2022/05/26 03:07:46;;;;;;;1.20;1.00;;;;;;;-145.69;100.00;72188.47;5075291;28;20199;-77
2022/05/26 03:10:15;;;;;;;4.47;1.10;;;;;;;-145.69;100.00;72192.44;5074916;28;20600;-77
2022/05/26 03:12:41;;;;;;;2.20;1.10;;;;;;;-145.69;100.00;72186.47;5074742;28;20538;-78
2022/05/26 03:15:10;;;;;;;2.03;1.13;;;;;;;-145.69;100.00;72192.44;5074949;28;20202;-77
2022/05/26 03:17:37;;;;;;;2.83;1.20;;;;;;;-145.69;100.00;72206.38;5074870;28;20237;-77
2022/05/26 03:20:04;;;;;;;1.47;0.80;;;;;;;-145.69;100.00;72222.31;5075058;28;20210;-78
2022/05/26 03:22:32;;;;;;;1.20;1.10;;;;;;;-145.69;100.00;72242.22;5074112;28;20203;-77
2022/05/26 03:24:58;;;;;;;4.20;1.30;;;;;;;-145.69;100.00;72252.16;5074225;28;20227;-77
2022/05/26 03:27:25;;;;;;;5.70;1.20;;;;;;;-145.69;100.00;72274.06;5074673;28;20213;-77
2022/05/26 03:29:51;;;;;;;3.17;1.10;;;;;;;-145.69;100.00;72297.94;5074678;28;20199;-77
2022/05/26 03:32:19;;;;;;;3.83;1.20;;;;;;;-145.69;100.00;72311.88;5074406;28;20198;-77
2022/05/26 03:43:00;;;;;;;1.73;1.10;;;;;;;-145.69;100.00;72329.78;5074446;28;20799;-77
2022/05/26 03:45:28;;;;;;;1.23;0.97;;;;;;;-145.69;100.00;72329.78;5074063;28;20242;-78
2022/05/26 03:47:54;;;;;;;7.43;1.00;;;;;;;-145.69;100.00;72333.75;5073702;28;20210;-77
2022/05/26 03:50:21;;;;;;;3.67;1.43;;;;;;;-145.69;100.00;72325.81;5074225;28;20616;-77
2022/05/26 03:52:47;;;;;;;1.83;1.33;;;;;;;-145.69;100.00;72313.84;5074046;28;20256;-78
2022/05/26 03:55:15;;;;;;;3.57;1.17;;;;;;;-145.69;100.00;72293.94;5073413;28;20195;-77
2022/05/26 03:57:43;;;;;;;1.30;1.20;;;;;;;-145.69;100.00;72276.03;5073801;28;20219;-78
2022/05/26 04:00:10;;;;;;;0.87;0.87;;;;;;;-145.69;100.00;72266.09;5073776;28;20600;-77
2022/05/26 04:02:37;;;;;;;1.83;0.90;;;;;;;-145.69;100.00;72250.16;5073914;28;20202;-78
2022/05/26 04:05:04;;;;;;;2.17;1.00;;;;;;;-145.69;100.00;72234.25;5074031;28;20202;-77
2022/05/26 04:07:30;;;;;;;1.33;1.20;;;;;;;-145.69;100.00;72214.34;5073292;28;20206;-78
2022/05/26 04:09:57;;;;;;;3.50;1.00;;;;;;;-145.69;100.00;72206.38;5073714;28;20248;-77
2022/05/26 04:12:24;;;;;;;1.27;0.90;;;;;;;-145.69;100.00;72220.31;5073590;28;20203;-78
2022/05/26 04:14:51;;;;;;;1.40;0.90;;;;;;;-145.69;100.00;72204.38;5073848;28;20198;-77
2022/05/26 04:17:17;;;;;;;2.63;0.90;;;;;;;-145.69;100.00;72186.47;5073594;28;20206;-76
2022/05/26 04:19:44;;;;;;;2.40;0.90;;;;;;;-145.69;100.00;72184.50;5070264;28;20607;-77
2022/05/26 04:22:17;;;;;;;7.27;1.10;;;;;;;-145.69;100.00;72178.53;5053509;28;20200;-77
2022/05/26 04:24:45;;;;;;;1.90;0.80;;;;;;;-145.69;100.00;72162.59;5053176;28;20590;-78
2022/05/26 04:27:11;;;;;;;0.90;0.60;;;;;;;-145.69;100.00;72148.66;5053579;28;20272;-78
2022/05/26 04:29:39;;;;;;;4.67;1.00;;;;;;;-145.69;100.00;72134.72;5056729;28;20576;-76
2022/05/26 04:32:06;;;;;;;2.20;0.97;;;;;;;-145.69;100.00;72120.81;5073122;28;20202;-78
2022/05/26 04:34:33;;;;;;;1.43;1.00;;;;;;;-145.69;100.00;72116.81;5073115;28;20661;-77
2022/05/26 04:37:00;;;;;;;3.03;0.90;;;;;;;-145.69;100.00;72104.88;5073186;28;20198;-77
2022/05/26 04:39:26;;;;;;;2.23;0.90;;;;;;;-145.69;100.00;72102.88;5073358;28;20276;-78
2022/05/26 04:41:53;;;;;;;3.00;0.83;;;;;;;-145.69;100.00;72079.00;5073111;28;20191;-77
2022/05/26 04:44:19;;;;;;;1.70;0.70;;;;;;;-145.69;100.00;72047.16;5073047;28;20293;-77
2022/05/26 04:46:47;;;;;;;3.53;0.80;;;;;;;-145.69;100.00;72025.28;5072921;28;20290;-77
2022/05/26 04:49:14;;;;;;;3.83;0.90;;;;;;;-145.69;100.00;72003.38;5073163;28;20214;-77
2022/05/26 04:51:41;;;;;;;2.97;0.70;;;;;;;-145.69;100.00;71979.50;5073060;28;20589;-77
2022/05/26 04:54:08;;;;;;;1.13;0.80;;;;;;;-145.69;100.00;71951.63;5072896;28;20191;-78
2022/05/26 04:56:35;;;;;;;2.25;0.80;;;;;;;-145.69;99.24;71931.72;5072588;28;20455;-77
2022/05/26 04:59:02;;;;;;;5.90;0.73;;;;;;;-145.69;100.00;71925.75;5072830;28;20234;-77
2022/05/26 05:01:28;;;;;;;1.43;0.70;;;;;;;-145.69;96.28;71899.88;5072954;28;20195;-78
2022/05/26 05:03:56;;;;;;;2.08;0.70;;;;;;;-145.69;91.11;71874.03;5072865;28;20244;-77
2022/05/26 05:06:23;;;;;;;4.50;0.77;;;;;;;-145.69;87.47;71864.06;5072852;28;20286;-78
2022/05/26 05:08:49;;;;;;;1.87;0.87;;;;;;;-145.69;89.71;71860.09;5073265;28;20607;-77
2022/05/26 05:11:16;;;;;;;8.43;0.90;;;;;;;-145.69;89.80;71872.03;5072760;28;20245;-77
2022/05/26 05:13:42;;;;;;;1.48;0.52;;;;;;;-145.69;89.75;71874.03;5072887;28;20213;-77
2022/05/26 05:16:15;;;;;;;0.85;0.70;;;;;;;-145.69;88.38;71881.97;5072790;28;20245;-78
2022/05/26 05:18:41;;;;;;;2.80;0.70;;;;;;;-145.69;88.20;71885.97;5072427;28;20219;-78
2022/05/26 05:21:11;;;;;;;1.42;0.70;;;;;;;-145.69;90.49;71887.94;5072811;28;20657;-77
2022/05/26 05:23:41;;;;;;;2.97;0.90;;;;;;;-145.69;88.92;71883.97;5072550;28;20280;-77
2022/05/26 05:26:11;;;;;;;1.17;0.85;;;;;;;-145.69;91.55;71883.97;5072483;28;20722;-77
2022/05/26 05:28:41;;;;;;;1.00;0.60;;;;;;;-145.69;87.26;71880.00;5072351;28;20289;-78
2022/05/26 05:31:12;;;;;;;0.55;0.50;;;;;;;-145.69;87.42;71868.06;5072334;28;20202;-78
2022/05/26 05:33:42;;;;;;;1.20;0.60;;;;;;;-145.69;86.13;71856.09;5072608;28;20244;-78
2022/05/26 05:36:14;;;;;;;3.85;0.80;;;;;;;-145.69;85.35;71862.06;5072513;28;20645;-78
2022/05/26 05:38:41;;;;;;;3.30;1.00;;;;;;;-145.69;84.73;71881.97;5072735;28;20227;-77
2022/05/26 05:41:08;;;;;;;4.28;1.00;;;;;;;-145.69;84.45;71870.03;5072874;28;20202;-77
2022/05/26 05:43:36;;;;;;;3.95;0.80;;;;;;;-145.69;82.07;71834.22;5072145;28;20232;-77
2022/05/26 05:46:03;;;;;;;2.35;0.75;;;;;;;-145.69;80.88;71760.59;5076439;28;20585;-77
2022/05/26 05:48:29;;;;;;;1.85;0.75;;;;;;;-145.69;74.71;71627.25;5076400;28;20203;-78
2022/05/26 05:50:56;;;;;;;4.13;1.00;;;;;;;-145.69;65.53;71507.84;5076503;28;20207;-79
2022/05/26 05:53:24;;;;;;;2.90;0.82;;;;;;;-145.69;70.63;71525.78;5076338;28;20214;-78
2022/05/26 05:55:50;;;;;;;0.75;0.50;;;;;;;-145.69;68.93;71537.72;5076280;28;20202;-79
2022/05/26 05:58:17;;;;;;;4.93;0.70;;;;;;;-145.69;64.80;71529.75;5076060;28;20234;-79
2022/05/26 06:00:44;;;;;;;3.67;0.70;;;;;;;-145.69;67.47;71549.66;5076278;28;20252;-78
2022/05/26 06:03:10;;;;;;;3.85;0.68;;;;;;;-145.69;70.64;71605.38;5076292;28;20244;-78
2022/05/26 06:05:37;;;;;;;1.47;0.50;;;;;;;-145.69;69.79;71597.41;5074931;28;20434;-79
2022/05/26 06:08:05;;;;;;;1.75;0.65;;;;;;;-145.69;69.38;71573.53;5075826;28;20553;-78
2022/05/26 06:10:33;;;;;;;1.80;0.70;;;;;;;-145.69;65.68;71561.59;5075986;28;20202;-78
2022/05/26 06:13:00;;;;;;;1.67;0.70;;;;;;;-145.69;66.58;71575.50;5073415;28;20199;-76
2022/05/26 06:15:27;;;;;;;1.83;0.57;;;;;;;-145.69;63.77;71537.72;5056070;28;20279;-79
2022/05/26 06:17:53;;;;;;;3.22;0.80;;;;;;;-145.69;68.36;71581.50;5055897;28;20196;-79
2022/05/26 06:20:20;;;;;;;3.05;0.60;;;;;;;-145.69;66.44;71577.50;5075265;28;20195;-79
2022/05/26 06:22:49;;;;;;;3.17;0.75;;;;;;;-145.69;69.74;71621.28;5075707;28;20199;-79
2022/05/26 06:25:17;;;;;;;2.30;0.98;;;;;;;-145.69;67.95;71651.13;5075604;28;20230;-79
2022/05/26 06:30:31;;;;;;;1.65;0.73;;;;;;;-145.69;69.07;71667.06;5075520;28;20194;-79
2022/05/26 06:38:31;;;;;;;2.13;0.75;;;;;;;-145.69;72.30;71700.88;5055245;28;20501;-78
2022/05/26 06:42:05;;;;;;;1.83;0.68;;;;;;;-145.69;74.36;71700.88;5055546;28;20195;-79
2022/05/26 06:43:46;;;;;;;2.95;0.60;;;;;;;-145.69;71.47;71669.03;5060211;28;20207;-79
2022/05/26 06:46:12;;;;;;;4.20;0.95;;;;;;;-145.69;71.58;71692.94;5075286;28;20202;-78
2022/05/26 06:48:38;;;;;;;5.57;0.80;;;;;;;-145.69;70.65;71696.91;5075271;28;20211;-78
2022/05/26 06:51:06;;;;;;;2.22;0.70;;;;;;;-145.69;70.13;71722.78;5075242;28;20684;-78
2022/05/26 06:53:32;;;;;;;1.55;0.70;;;;;;;-145.69;69.51;71704.88;5075421;28;20194;-79
2022/05/26 06:55:59;;;;;;;0.95;0.65;;;;;;;-145.69;71.49;71639.19;5074917;28;20202;-77
2022/05/26 06:58:26;;;;;;;3.08;0.80;;;;;;;-145.69;70.35;71629.25;5075002;28;20241;-78
2022/05/26 07:00:54;;;;;;;1.90;0.55;;;;;;;-145.69;66.68;71657.09;5074983;28;20210;-78
2022/05/26 07:03:21;;;;;;;3.05;0.70;;;;;;;-145.69;62.31;71671.03;5075182;28;20194;-78
2022/05/26 07:05:48;;;;;;;1.60;0.70;;;;;;;-145.69;66.49;71657.09;5075104;28;20619;-80
2022/05/26 07:08:14;;;;;;;4.80;1.17;;;;;;;-145.69;65.50;71657.09;5074193;28;20604;-77
2022/05/26 07:10:40;;;;;;;4.60;0.73;;;;;;;-145.69;69.01;71657.09;5074852;28;20226;-77
2022/05/26 07:13:07;;;;;;;2.28;0.63;;;;;;;-145.69;70.46;71623.28;5074559;28;20207;-77
2022/05/26 07:15:34;;;;;;;1.55;0.73;;;;;;;-145.69;67.07;71637.19;5075025;28;20203;-78
2022/05/26 07:18:04;;;;;;;3.38;0.70;;;;;;;-145.69;66.08;71633.22;5074501;28;20314;-80
2022/05/26 07:20:30;;;;;;;0.85;0.60;;;;;;;-145.69;69.79;71613.31;5075021;28;20298;-78
2022/05/26 07:22:57;;;;;;;1.20;0.50;;;;;;;-145.69;69.66;71585.47;5074718;28;20538;-77
2022/05/26 07:25:24;;;;;;;1.60;0.75;;;;;;;-145.69;63.36;71607.34;5088177;28;20321;-77
2022/05/26 07:27:51;;;;;;;1.17;0.50;;;;;;;-145.69;66.97;71597.41;5074390;28;20244;-79
2022/05/26 07:30:17;;;;;;;3.85;0.52;;;;;;;-145.69;62.32;71603.38;5074657;28;20219;-78
2022/05/26 07:32:44;;;;;;;2.13;0.65;;;;;;;-145.69;67.61;71603.38;5074400;28;20199;-77
2022/05/26 07:35:11;;;;;;;2.72;0.70;;;;;;;-145.69;63.69;71611.34;5074587;28;20260;-78
2022/05/26 07:43:08;;;;;;;1.48;0.65;;;;;;;-145.69;62.84;71623.28;5074326;28;20561;-77
2022/05/26 07:45:35;;;;;;;2.95;0.70;;;;;;;-145.69;62.88;71617.31;5074444;28;20246;-77
2022/05/26 07:48:01;;;;;;;1.13;0.52;;;;;;;-145.69;63.51;71605.38;5074076;28;20206;-79
2022/05/26 07:50:29;;;;;;;1.23;0.60;;;;;;;-145.69;61.46;71615.31;5074158;28;20241;-80
2022/05/26 07:52:56;;;;;;;2.25;0.65;;;;;;;-145.69;68.94;71547.66;5073606;28;20214;-77
2022/05/26 07:55:22;;;;;;;2.08;0.73;;;;;;;-145.69;60.44;71535.72;5074306;28;20226;-79
2022/05/26 07:57:53;;;;;;;3.33;0.70;;;;;;;-145.69;61.51;71497.91;5074054;28;20202;-79
2022/05/26 08:00:20;;;;;;;0.50;0.40;;;;;;;-145.69;60.97;71515.81;5073542;28;20283;-79
2022/05/26 08:02:47;;;;;;;2.58;0.63;;;;;;;-145.69;59.24;71501.88;5073843;28;20620;-79
2022/05/26 08:05:14;;;;;;;1.48;0.73;;;;;;;-145.69;57.99;71521.78;5073716;28;20199;-78
2022/05/26 08:07:43;;;;;;;0.82;0.60;;;;;;;-145.69;59.26;71541.69;5073423;28;20624;-78
2022/05/26 08:10:10;;;;;;;1.20;0.70;;;;;;;-145.69;59.49;71489.94;5073456;28;20203;-79
2022/05/26 08:12:37;;;;;;;2.83;0.68;;;;;;;-145.69;60.67;71537.72;5073805;28;20198;-78
2022/05/26 08:15:04;;;;;;;3.90;0.60;;;;;;;-145.69;58.47;71527.75;5073748;28;20273;-79
2022/05/26 08:17:30;;;;;;;2.67;0.60;;;;;;;-145.69;60.34;71483.97;5068902;28;20612;-78
2022/05/26 08:19:57;;;;;;;2.33;0.50;;;;;;;-145.69;59.62;71426.28;5053557;28;20231;-81
2022/05/26 08:22:23;;;;;;;2.42;0.55;;;;;;;-145.69;57.91;71442.19;5057640;28;20195;-79
2022/05/26 08:24:51;;;;;;;2.25;0.80;;;;;;;-145.69;57.05;71414.34;5073426;28;20202;-78
2022/05/26 08:27:18;;;;;;;5.53;1.20;;;;;;;-145.69;58.93;71374.53;5073382;28;20202;-79
2022/05/26 08:29:44;;;;;;;5.05;1.00;;;;;;;-145.69;55.16;71382.50;5073472;28;20233;-79
2022/05/26 08:32:11;;;;;;;2.85;0.60;;;;;;;-145.69;55.56;71362.59;5073405;28;20198;-80
2022/05/26 08:34:38;;;;;;;0.70;0.55;;;;;;;-145.69;52.62;71340.72;5073451;28;20232;-79
2022/05/26 08:37:05;;;;;;;0.40;0.40;;;;;;;-145.69;50.48;71368.56;5073134;28;20225;-82
2022/05/26 08:39:32;;;;;;;3.75;0.60;;;;;;;-145.69;51.23;71424.28;5073448;28;20235;-85
2022/05/26 08:42:01;;;;;;;2.75;0.40;;;;;;;-145.69;56.30;71420.31;5073481;28;20210;-79
2022/05/26 08:44:31;;;;;;;1.85;0.43;;;;;;;-145.69;52.16;71430.25;5073307;28;20203;-78
2022/05/26 08:47:02;;;;;;;1.50;0.70;;;;;;;-145.69;53.55;71428.25;5073125;28;20202;-79
2022/05/26 08:49:34;;;;;;;1.25;0.55;;;;;;;-145.69;52.44;71392.44;5072962;28;20248;-79
2022/05/26 08:52:04;;;;;;;2.42;0.52;;;;;;;-145.69;58.58;71316.84;5073317;28;20679;-82
2022/05/26 08:54:36;;;;;;;4.30;0.70;;;;;;;-145.69;55.34;71181.53;5073233;28;20209;-81
2022/05/26 08:57:07;;;;;;;0.65;0.40;;;;;;;-145.69;49.79;71175.56;5073059;28;20198;-79
2022/05/26 08:59:38;;;;;;;3.03;0.60;;;;;;;-145.69;49.04;71324.78;5052705;28;20664;-79
2022/05/26 09:02:05;;;;;;;0.95;0.60;;;;;;;-145.69;49.69;71314.84;5071435;28;20557;-79
2022/05/26 09:04:32;;;;;;;0.93;0.52;;;;;;;-145.69;48.59;71426.28;5073191;28;20198;-80
2022/05/26 09:12:57;;;;;;;4.10;0.70;;;;;;;-145.69;51.28;71430.25;5052341;28;20206;-79
2022/05/26 09:15:23;;;;;;;1.58;0.80;;;;;;;-145.69;49.63;71432.25;5053037;28;20199;-81
2022/05/26 09:17:50;;;;;;;0.45;0.32;;;;;;;-145.69;53.27;71346.69;5052880;28;20199;-80
2022/05/26 09:20:33;;;;;;;2.70;0.50;;;;;;;-145.69;50.79;71332.75;5065209;28;20227;-79
2022/05/26 09:23:15;;;;;;;3.10;1.05;;;;;;;-145.69;49.81;71350.66;5076825;28;20288;-80
2022/05/26 09:25:46;;;;;;;1.23;0.40;;;;;;;-145.69;49.76;71362.59;5076864;28;20234;-79
2022/05/26 09:28:27;;;;;;;0.47;0.43;;;;;;;-145.69;51.25;71312.84;5077064;28;20293;-79
2022/05/26 09:30:53;;;;;;;2.75;0.50;;;;;;;-145.69;49.42;71294.94;5075187;28;20430;-80
2022/05/26 09:33:28;;;;;;;1.83;0.57;;;;;;;-145.69;48.49;71279.03;5076330;28;20197;-79
2022/05/26 09:35:55;;;;;;;3.05;0.60;;;;;;;-145.69;48.78;71245.19;5076638;28;20205;-80
2022/05/26 09:38:32;;;;;;;2.03;0.70;;;;;;;-145.69;47.21;71167.59;5076697;28;20664;-80
2022/05/26 09:41:07;;;;;;;0.93;0.50;;;;;;;-145.69;45.52;71183.50;5076685;28;20696;-82
2022/05/26 09:43:36;;;;;;;1.50;0.55;;;;;;;-145.69;49.02;71306.88;5076849;28;20202;-80
2022/05/26 09:46:14;;;;;;;1.83;0.63;;;;;;;-145.69;50.96;71414.34;5076284;28;20199;-84
2022/05/26 09:48:41;;;;;;;0.80;0.60;;;;;;;-145.69;52.47;71414.34;5076667;28;20624;-79
2022/05/26 09:51:12;;;;;;;0.75;0.45;;;;;;;-145.69;54.05;71406.38;5076431;28;20202;-79
2022/05/26 09:53:41;;;;;;;1.60;0.70;;;;;;;-145.69;52.79;71338.72;5076225;28;20289;-79
2022/05/26 09:56:09;;;;;;;8.70;0.60;;;;;;;-145.69;52.96;71304.91;5075777;28;20232;-79
2022/05/26 09:58:39;;;;;;;2.38;0.60;;;;;;;-145.69;53.49;71314.84;5075880;28;20202;-79
2022/05/26 10:01:13;;;;;;;0.43;0.43;;;;;;;-145.69;53.27;71279.03;5075859;28;20252;-79
2022/05/26 10:03:52;;;;;;;1.23;0.50;;;;;;;-145.69;51.00;71187.50;5076237;28;20202;-81
2022/05/26 10:06:28;;;;;;;0.50;0.50;;;;;;;-145.69;52.98;71257.13;5075925;28;20233;-82
2022/05/26 10:09:06;;;;;;;1.15;0.50;;;;;;;-145.69;52.79;71332.75;5076060;28;20237;-81
2022/05/26 10:11:52;;;;;;;1.33;0.57;;;;;;;-145.69;51.41;71342.69;5073325;28;20251;-79
2022/05/26 10:14:36;;;;;;;2.22;0.60;;;;;;;-145.69;52.26;71350.66;5075800;28;20700;-81
2022/05/26 10:17:10;;;;;;;1.65;0.52;;;;;;;-145.69;54.60;71324.78;5075971;28;20245;-79
2022/05/26 10:19:54;;;;;;;0.95;0.60;;;;;;;-145.69;51.02;71306.88;5075489;28;20268;-79
2022/05/26 10:22:33;;;;;;;4.32;0.73;;;;;;;-145.69;53.22;71322.81;5075841;28;20669;-80
2022/05/26 10:25:20;;;;;;;2.63;0.57;;;;;;;-145.69;52.44;71292.94;5075591;28;20187;-80
2022/05/26 10:28:28;;;;;;;0.93;0.50;;;;;;;-145.69;48.95;71283.00;5075390;28;20557;-80
2022/05/26 10:31:01;;;;;;;3.25;0.52;;;;;;;-145.69;49.46;71175.56;5074884;28;20675;-80
2022/05/26 10:33:48;;;;;;;1.35;0.63;;;;;;;-145.69;49.65;71288.97;5075701;28;20195;-81
2022/05/26 10:36:22;;;;;;;2.88;0.50;;;;;;;-145.69;48.82;71279.03;5075220;28;20202;-80
2022/05/26 10:39:04;;;;;;;0.80;0.40;;;;;;;-145.69;48.84;71306.88;5074454;28;20448;-80
2022/05/26 10:41:35;;;;;;;0.65;0.50;;;;;;;-145.69;53.90;71273.06;5075615;28;20226;-80
2022/05/26 10:44:09;;;;;;;1.52;0.50;;;;;;;-145.69;50.07;71205.41;5074990;28;20191;-79
2022/05/26 10:46:40;;;;;;;1.17;0.45;;;;;;;-145.69;47.60;71173.56;5075388;28;20199;-80
2022/05/26 10:49:13;;;;;;;1.45;0.55;;;;;;;-145.69;46.29;71193.47;5075430;28;20256;-80
2022/05/26 10:51:43;;;;;;;2.70;0.60;;;;;;;-145.69;46.89;71195.47;5075284;28;20202;-81
2022/05/26 10:54:15;;;;;;;1.70;0.43;;;;;;;-145.69;46.84;71265.09;5074972;28;20203;-81
2022/05/26 10:56:46;;;;;;;0.43;0.43;;;;;;;-145.69;49.50;71217.34;5075008;28;20203;-80
2022/05/26 10:59:21;;;;;;;4.30;0.80;;;;;;;-145.69;50.92;71203.41;5074843;28;20207;-82
2022/05/26 11:01:55;;;;;;;3.50;0.57;;;;;;;-145.69;52.67;71199.44;5075212;28;20206;-81
2022/05/26 11:04:30;;;;;;;1.02;0.60;;;;;;;-145.69;50.14;71171.56;5074716;28;20203;-82
2022/05/26 11:07:02;;;;;;;2.47;0.45;;;;;;;-145.69;49.51;71179.53;5074891;28;20268;-85
2022/05/26 11:09:36;;;;;;;1.25;0.70;;;;;;;-145.69;50.42;71247.19;5074953;28;20206;-81
2022/05/26 11:12:08;;;;;;;1.95;0.57;;;;;;;-145.69;51.71;71159.63;5074496;28;20580;-80
2022/05/26 11:17:39;;;;;;;2.28;0.60;;;;;;;-145.69;47.43;71032.28;5074842;28;20226;-81
2022/05/26 11:20:12;;;;;;;1.10;0.52;;;;;;;-145.69;49.14;71074.09;5074316;28;20612;-82
2022/05/26 11:22:41;;;;;;;1.05;0.30;;;;;;;-145.69;47.83;71076.06;5074687;28;20557;-82
2022/05/26 11:25:10;;;;;;;2.00;0.50;;;;;;;-145.69;49.40;71187.50;5074465;28;20281;-82
2022/05/26 11:27:45;;;;;;;2.63;0.60;;;;;;;-145.69;50.10;71203.41;5074485;28;20202;-80
2022/05/26 11:36:11;;;;;;;0.88;0.35;;;;;;;-145.69;49.03;71205.41;5031975;28;20200;-79
2022/05/26 11:38:43;;;;;;;2.20;0.50;;;;;;;-145.69;46.99;71145.72;5031967;28;20227;-81
2022/05/26 11:41:14;;;;;;;2.63;0.63;;;;;;;-145.69;49.43;71221.31;5054664;28;20234;-80
2022/05/26 11:43:45;;;;;;;1.30;0.50;;;;;;;-145.69;48.36;71189.47;5073686;28;20187;-79
2022/05/26 11:46:33;;;;;;;1.20;0.50;;;;;;;-145.69;47.42;71195.47;5074050;28;20199;-80
2022/05/26 11:49:01;;;;;;;1.50;0.50;;;;;;;-145.69;50.30;71193.47;5073010;28;20446;-80
2022/05/26 11:51:30;;;;;;;0.85;0.50;;;;;;;-145.69;53.25;71129.78;5074085;28;20268;-82
2022/05/26 11:53:59;;;;;;;0.77;0.50;;;;;;;-145.69;47.97;71093.97;5074021;28;20203;-80
2022/05/26 11:56:45;;;;;;;1.33;0.30;;;;;;;-145.69;48.72;71131.78;5073479;28;20198;-79
2022/05/26 11:59:23;;;;;;;2.45;0.52;;;;;;;-145.69;47.57;71167.59;5073163;28;20206;-81
2022/05/26 12:02:31;;;;;;;1.48;0.50;;;;;;;-145.69;48.19;71149.69;5073769;28;20253;-80
2022/05/26 12:05:43;;;;;;;0.50;0.40;;;;;;;-145.69;49.99;71209.38;5069849;28;20198;-79
2022/05/26 12:08:36;;;;;;;1.15;0.47;;;;;;;-145.69;52.20;71292.94;5067037;28;20534;-79
2022/05/26 12:11:07;;;;;;;1.33;0.43;;;;;;;-145.69;51.26;71245.19;5073499;28;20669;-79